Chesnee, South Carolina
Current Conditions -  °F | °C
As of 1:35 AM on Wednesday 28 Jan 2015 (Local Time) from KEHO Reporting Station
Clear Clear  
Wind Chill: -4°   Ceiling: Unl
Heat Index:   Visibility: 10mi
Dew Point: -9°   Wind: 9mph
Humidity: 48%   Direction: 340°NNW
Pressure: 30.05"   Gusts: NA
Location:  35.15°N, 81.86°W
Report Text: KEHO 280635Z AUTO 34008KT 10SM CLR 00/M09 A3005 RMK AO2 T00041094
Loading
Personal Weather Stations






























Interactive Weather Map New forecast layout! Learn more

10-Day Weather Forecast

Advertisements
Track Severe Weather on mobile